Time;durP1;ratioP1;P1;durP2;ratioP2;P2;SDS_P1;SDS_P2;PMS_P1;PMS_P2;Temp;Humidity;BMP_temperature;BMP_pressure;BME280_temperature;BME280_humidity;BME280_pressure;Samples;Min_cycle;Max_cycle;Signal;HPM_P1;HPM_P2
2023/01/13 00:00:41;;;;;;;13.90;1.60;;;;;;;6.17;57.99;99805.13;5064408;28;20317;-66
2023/01/13 00:03:06;;;;;;;16.27;1.10;;;;;;;6.40;57.13;99819.84;5063674;27;20684;-66
2023/01/13 00:05:32;;;;;;;15.23;1.75;;;;;;;6.61;55.92;99820.75;5064172;28;20027;-65
2023/01/13 00:07:58;;;;;;;12.10;1.27;;;;;;;5.99;57.09;99828.25;5064139;27;20040;-66
2023/01/13 00:10:23;;;;;;;14.02;2.58;;;;;;;6.17;56.79;99816.38;5063225;28;20047;-66
2023/01/13 00:12:50;;;;;;;11.23;1.20;;;;;;;5.94;56.42;99835.38;5067061;28;20089;-66
2023/01/13 00:15:15;;;;;;;14.20;1.73;;;;;;;6.14;55.56;99831.19;5067618;28;20031;-65
2023/01/13 00:17:41;;;;;;;6.75;0.38;;;;;;;5.98;55.79;99829.19;5065427;28;20097;-65
2023/01/13 00:20:08;;;;;;;10.48;1.48;;;;;;;5.96;55.40;99828.38;5079486;27;20523;-66
2023/01/13 00:22:34;;;;;;;9.45;0.82;;;;;;;6.15;54.44;99833.75;5061507;28;20194;-66
2023/01/13 00:25:00;;;;;;;10.65;1.90;;;;;;;6.15;54.52;99817.31;5065633;28;20041;-66
2023/01/13 00:27:26;;;;;;;9.80;1.52;;;;;;;6.01;54.86;99830.81;5066733;28;20043;-66
2023/01/13 00:29:52;;;;;;;10.98;1.35;;;;;;;5.95;55.04;99844.88;5064806;28;20028;-66
2023/01/13 00:32:18;;;;;;;21.70;1.92;;;;;;;6.39;54.27;99839.75;5064209;28;20321;-67
2023/01/13 00:34:43;;;;;;;13.20;1.13;;;;;;;5.59;55.83;99844.44;5060347;28;20153;-66
2023/01/13 00:37:11;;;;;;;13.45;0.70;;;;;;;5.83;55.12;99840.13;5064328;28;20879;-65
2023/01/13 00:39:37;;;;;;;17.98;1.77;;;;;;;6.06;54.73;99849.63;5078631;28;20054;-66
2023/01/13 00:44:47;;;;;;;18.15;1.17;;;;;;;5.94;54.24;99845.75;5060295;28;20039;-66
2023/01/13 00:47:12;;;;;;;17.63;1.95;;;;;;;5.60;55.28;99840.97;5075798;28;20367;-67
2023/01/13 00:49:38;;;;;;;16.98;1.17;;;;;;;5.91;54.41;99839.84;5048465;28;20024;-67
2023/01/13 00:52:03;;;;;;;12.45;0.93;;;;;;;6.00;54.32;99839.50;5064568;28;20067;-67
2023/01/13 00:54:29;;;;;;;20.10;1.65;;;;;;;6.09;54.43;99842.59;5064597;28;20052;-68
2023/01/13 00:56:54;;;;;;;13.88;1.08;;;;;;;5.83;55.28;99864.28;5064496;28;20091;-66
2023/01/13 00:59:19;;;;;;;13.07;1.48;;;;;;;5.79;55.02;99859.28;5063264;28;20044;-68
2023/01/13 01:01:45;;;;;;;16.05;2.22;;;;;;;5.75;55.14;99862.88;5063989;28;20032;-66
2023/01/13 01:04:10;;;;;;;8.48;1.30;;;;;;;5.34;52.45;99886.75;5059025;28;20547;-66
2023/01/13 01:06:36;;;;;;;9.45;2.25;;;;;;;5.72;51.99;99856.06;5063653;28;20054;-66
2023/01/13 01:09:03;;;;;;;13.30;1.20;;;;;;;5.50;52.76;99860.31;5063333;28;20461;-71
2023/01/13 01:11:30;;;;;;;27.10;2.67;;;;;;;5.12;53.45;99871.09;5063114;28;20028;-71
2023/01/13 01:13:59;;;;;;;12.57;0.80;;;;;;;5.32;52.54;99872.16;5059928;28;20036;-71
2023/01/13 01:16:26;;;;;;;13.35;1.77;;;;;;;5.99;51.63;99853.38;5062653;28;20039;-71
2023/01/13 01:18:53;;;;;;;18.60;1.88;;;;;;;5.41;52.76;99861.47;5072301;28;20094;-71
2023/01/13 01:21:21;;;;;;;14.35;1.35;;;;;;;5.63;52.42;99870.19;5068692;28;20058;-72
2023/01/13 01:23:46;;;;;;;13.57;1.15;;;;;;;5.28;52.95;99865.41;5063094;28;20135;-72
2023/01/13 01:26:18;;;;;;;16.08;1.77;;;;;;;5.44;52.73;99869.16;5067322;28;20050;-71
2023/01/13 01:28:44;;;;;;;13.25;1.52;;;;;;;5.78;51.72;99870.56;5067746;28;20129;-71
2023/01/13 01:31:15;;;;;;;10.75;1.73;;;;;;;5.96;51.51;99864.69;5069337;28;20427;-72
2023/01/13 01:33:41;;;;;;;14.60;1.05;;;;;;;5.55;52.20;99872.22;5045273;28;20123;-72
2023/01/13 01:36:08;;;;;;;21.77;2.03;;;;;;;5.54;52.67;99880.06;5055926;28;20032;-71
2023/01/13 01:38:33;;;;;;;21.48;2.00;;;;;;;5.23;53.24;99879.38;5065556;28;20063;-71
2023/01/13 01:40:59;;;;;;;20.90;3.30;;;;;;;4.91;53.34;99877.84;5079443;28;20055;-64
2023/01/13 01:43:58;;;;;;;22.10;2.03;;;;;;;5.16;53.27;99880.47;5071073;28;20138;-65
2023/01/13 01:46:38;;;;;;;28.17;1.55;;;;;;;5.00;53.32;99866.31;5068761;28;20032;-66
2023/01/13 01:49:20;;;;;;;19.48;2.03;;;;;;;5.03;52.60;99871.41;5068514;28;20465;-65
2023/01/13 01:51:50;;;;;;;23.13;2.42;;;;;;;5.42;51.99;99870.97;5066787;28;20036;-65
2023/01/13 01:54:23;;;;;;;17.42;2.80;;;;;;;5.10;52.77;99883.28;5047966;28;20536;-65
2023/01/13 01:56:49;;;;;;;20.33;2.72;;;;;;;5.13;52.67;99869.38;5067563;28;20104;-65
2023/01/13 01:59:15;;;;;;;19.20;2.35;;;;;;;5.17;52.63;99876.97;5067000;28;20039;-65
2023/01/13 02:01:42;;;;;;;14.70;2.92;;;;;;;4.99;52.78;99870.66;5078832;27;20028;-66
2023/01/13 02:04:14;;;;;;;16.85;2.78;;;;;;;5.13;52.36;99882.31;5065613;28;20166;-66
2023/01/13 02:06:41;;;;;;;21.80;1.98;;;;;;;5.04;52.63;99881.72;5064296;28;20028;-65
2023/01/13 02:09:07;;;;;;;21.15;3.40;;;;;;;5.42;51.39;99878.75;5063695;28;20044;-66
2023/01/13 02:14:21;;;;;;;18.40;1.63;;;;;;;5.00;51.97;99871.50;5062699;28;20094;-66
2023/01/13 02:16:57;;;;;;;32.00;3.65;;;;;;;5.10;51.97;99867.72;5065145;28;20772;-66
2023/01/13 02:19:55;;;;;;;19.55;1.92;;;;;;;4.79;52.25;99862.69;5064415;28;20047;-66
2023/01/13 02:22:51;;;;;;;19.45;2.22;;;;;;;5.08;51.33;99860.88;5065533;28;20105;-66
2023/01/13 02:25:39;;;;;;;20.02;2.55;;;;;;;5.15;50.77;99870.16;5066543;28;20044;-66
2023/01/13 02:28:26;;;;;;;27.05;3.53;;;;;;;5.22;51.14;99867.31;5056010;27;20074;-66
2023/01/13 02:34:00;;;;;;;20.80;2.35;;;;;;;4.77;52.06;99860.13;5059675;28;20047;-67
2023/01/13 02:36:36;;;;;;;20.83;2.65;;;;;;;5.04;51.27;99858.41;5086087;28;20050;-67
2023/01/13 02:39:09;;;;;;;22.67;2.95;;;;;;;4.73;52.23;99857.69;5064785;28;20540;-67
2023/01/13 02:45:02;;;;;;;22.60;2.33;;;;;;;4.26;53.48;99868.59;5063685;28;20040;-66
2023/01/13 02:47:32;;;;;;;18.95;2.00;;;;;;;4.20;53.46;99855.84;5067859;27;20052;-67
2023/01/13 02:50:04;;;;;;;19.80;1.98;;;;;;;4.82;52.04;99853.06;5065142;28;20036;-67
2023/01/13 02:52:39;;;;;;;29.98;3.22;;;;;;;4.42;53.31;99843.13;5063129;28;20056;-66
2023/01/13 02:55:14;;;;;;;24.52;2.75;;;;;;;4.67;52.99;99838.00;5064379;28;20143;-73
2023/01/13 02:57:42;;;;;;;12.52;2.35;;;;;;;4.35;53.32;99852.81;5068712;28;20271;-73
2023/01/13 03:00:11;;;;;;;25.67;2.63;;;;;;;4.41;53.25;99847.44;5067173;28;20085;-73
2023/01/13 03:02:37;;;;;;;22.05;2.58;;;;;;;4.46;53.25;99836.13;5062005;28;20045;-73
2023/01/13 03:05:03;;;;;;;17.88;1.88;;;;;;;4.70;52.71;99822.41;5069018;28;20471;-73
2023/01/13 03:07:38;;;;;;;22.35;2.67;;;;;;;4.48;53.25;99824.81;5067577;28;20052;-72
2023/01/13 03:10:21;;;;;;;20.27;2.22;;;;;;;4.21;53.76;99814.44;5066448;28;20043;-74
2023/01/13 03:13:02;;;;;;;24.33;2.72;;;;;;;4.52;53.12;99808.31;5063955;28;20056;-74
2023/01/13 03:15:42;;;;;;;22.85;3.13;;;;;;;4.65;52.94;99816.50;5064690;28;20032;-68
2023/01/13 03:18:18;;;;;;;15.93;2.28;;;;;;;4.47;53.36;99804.16;5058132;28;20097;-68
2023/01/13 03:20:55;;;;;;;24.58;3.60;;;;;;;4.93;51.96;99805.28;5065667;28;20032;-66
2023/01/13 03:23:31;;;;;;;24.55;2.85;;;;;;;4.62;53.27;99811.44;5062421;27;20561;-68
2023/01/13 03:26:03;;;;;;;16.02;1.98;;;;;;;4.44;53.83;99805.09;5063488;28;20611;-68
2023/01/13 03:28:34;;;;;;;12.57;1.67;;;;;;;4.38;53.92;99808.72;5060708;28;20036;-67
2023/01/13 03:31:06;;;;;;;29.77;3.55;;;;;;;4.28;53.90;99804.75;5079494;28;20022;-67
2023/01/13 03:33:35;;;;;;;;;;;;;;;4.45;53.82;99811.97;5061784;28;20056;-67
2023/01/13 03:36:07;;;;;;;31.55;3.22;;;;;;;4.37;53.70;99813.97;5065312;28;19912;-67
2023/01/13 03:38:41;;;;;;;21.60;2.88;;;;;;;4.63;53.23;99815.69;5063165;27;20040;-67
2023/01/13 03:41:17;;;;;;;18.25;1.92;;;;;;;4.50;53.63;99811.81;5062754;28;20051;-68
2023/01/13 03:46:55;;;;;;;20.52;2.75;;;;;;;4.64;53.77;99810.47;5063397;28;20032;-68
2023/01/13 03:49:24;;;;;;;24.95;2.45;;;;;;;4.75;53.58;99815.31;5062720;27;20047;-68
2023/01/13 03:52:01;;;;;;;16.27;2.25;;;;;;;4.35;54.44;99800.22;5063877;28;20119;-68
2023/01/13 03:54:30;;;;;;;14.98;1.75;;;;;;;4.41;54.28;99790.53;5063261;28;20066;-67
2023/01/13 03:57:02;;;;;;;24.70;2.60;;;;;;;4.27;54.71;99792.69;5065580;28;20082;-68
2023/01/13 03:59:32;;;;;;;26.02;3.85;;;;;;;4.78;52.87;99789.31;5063099;28;20048;-68
2023/01/13 04:02:04;;;;;;;18.83;2.95;;;;;;;4.37;53.92;99783.75;5063966;28;20032;-68
2023/01/13 04:04:44;;;;;;;;;;;;;;;4.32;54.00;99789.94;5063665;28;20106;-68
2023/01/13 04:07:37;;;;;;;25.80;2.20;;;;;;;4.32;54.44;99790.81;5063980;28;19911;-68
2023/01/13 04:10:07;;;;;;;15.80;2.20;;;;;;;3.75;56.15;99802.84;5047772;28;20077;-68
2023/01/13 04:13:00;;;;;;;10.05;1.88;;;;;;;4.66;53.84;99787.16;5058054;28;20611;-68
2023/01/13 04:15:28;;;;;;;20.20;2.25;;;;;;;4.54;54.14;99785.81;5060770;28;20043;-68
2023/01/13 04:18:01;;;;;;;18.25;2.90;;;;;;;4.42;54.24;99788.78;5064600;28;20032;-67
2023/01/13 04:20:26;;;;;;;21.17;1.67;;;;;;;4.49;53.98;99792.00;5062142;28;20111;-68
2023/01/13 04:22:51;;;;;;;23.23;2.50;;;;;;;4.36;54.09;99791.56;5062849;28;20044;-69
2023/01/13 04:25:17;;;;;;;13.27;2.00;;;;;;;4.71;53.48;99776.66;5067433;28;20032;-68
2023/01/13 04:27:43;;;;;;;21.42;2.40;;;;;;;4.80;53.43;99784.94;5078807;28;20082;-64
2023/01/13 04:30:09;;;;;;;25.17;2.40;;;;;;;4.60;53.78;99782.16;5071167;28;20085;-65
2023/01/13 04:32:35;;;;;;;16.35;1.92;;;;;;;3.93;55.37;99767.84;5053809;28;20473;-65
2023/01/13 04:35:00;;;;;;;21.92;3.17;;;;;;;4.46;53.78;99779.19;5047362;28;20139;-65
2023/01/13 04:37:26;;;;;;;37.65;3.80;;;;;;;4.33;54.41;99787.31;5060333;28;20044;-65
2023/01/13 04:39:51;;;;;;;19.63;2.00;;;;;;;4.06;54.87;99783.84;5065707;28;20040;-65
2023/01/13 04:42:16;;;;;;;13.40;2.63;;;;;;;4.38;54.31;99772.50;5063840;28;20051;-64
2023/01/13 04:44:42;;;;;;;18.77;2.17;;;;;;;4.26;54.50;99785.00;5062333;28;20623;-66
2023/01/13 04:47:07;;;;;;;24.48;2.25;;;;;;;4.22;54.70;99773.88;5064595;27;20137;-65
2023/01/13 04:49:33;;;;;;;21.23;1.58;;;;;;;3.97;55.05;99771.22;5064762;28;20089;-66
2023/01/13 04:51:58;;;;;;;16.58;2.20;;;;;;;3.97;54.98;99795.31;5063890;28;20139;-65
2023/01/13 04:54:24;;;;;;;18.80;3.00;;;;;;;4.31;55.05;99783.09;5059327;28;20347;-67
2023/01/13 04:56:49;;;;;;;26.15;2.58;;;;;;;4.40;54.34;99781.06;5063094;28;20043;-67
2023/01/13 04:59:14;;;;;;;17.75;2.58;;;;;;;4.26;55.02;99770.31;5063210;28;20108;-67
2023/01/13 05:01:40;;;;;;;22.30;3.60;;;;;;;4.37;54.46;99764.81;5063559;28;20040;-65
2023/01/13 05:04:06;;;;;;;23.73;2.15;;;;;;;3.98;55.72;99755.66;5068615;28;20055;-70
2023/01/13 05:06:32;;;;;;;18.58;2.83;;;;;;;4.15;55.30;99762.88;5062391;28;20067;-68
2023/01/13 05:08:57;;;;;;;15.88;2.83;;;;;;;4.20;55.00;99754.97;5063931;28;20137;-68
2023/01/13 05:16:59;;;;;;;16.58;1.65;;;;;;;4.13;55.59;99753.47;5062832;28;20258;-66
2023/01/13 05:19:31;;;;;;;27.52;3.40;;;;;;;3.91;56.24;99748.97;5053942;28;20040;-65
2023/01/13 05:27:26;;;;;;;22.05;2.47;;;;;;;3.87;56.14;99749.94;5060708;28;20796;-66
2023/01/13 05:29:52;;;;;;;18.00;1.83;;;;;;;4.25;55.13;99758.25;5076998;28;20024;-65
2023/01/13 05:32:18;;;;;;;15.02;1.77;;;;;;;4.26;55.10;99759.13;5061081;28;20036;-66
2023/01/13 05:34:43;;;;;;;17.35;2.30;;;;;;;4.31;54.48;99752.91;5062869;28;20024;-65
2023/01/13 05:37:09;;;;;;;17.65;2.67;;;;;;;4.71;53.55;99768.88;5062513;27;20075;-65
2023/01/13 05:45:04;;;;;;;15.65;2.25;;;;;;;4.40;54.55;99752.59;5064954;28;20274;-68
2023/01/13 05:47:30;;;;;;;25.73;3.58;;;;;;;4.25;54.37;99755.66;5075779;28;20049;-70
2023/01/13 05:49:56;;;;;;;16.95;1.73;;;;;;;4.58;53.49;99740.78;5061050;28;20027;-72
2023/01/13 05:52:21;;;;;;;19.52;1.42;;;;;;;4.41;54.60;99750.88;5055688;28;20070;-69
2023/01/13 05:54:47;;;;;;;15.43;2.20;;;;;;;4.50;53.78;99753.16;5060217;28;20064;-65
2023/01/13 05:57:12;;;;;;;15.50;2.25;;;;;;;4.21;54.59;99751.50;5063115;28;20060;-66
2023/01/13 05:59:38;;;;;;;26.30;2.38;;;;;;;3.87;55.23;99751.69;5064650;28;20040;-65
2023/01/13 06:02:03;;;;;;;18.52;2.20;;;;;;;4.59;53.51;99741.66;5065123;28;20082;-64
2023/01/13 06:04:29;;;;;;;18.70;3.17;;;;;;;4.72;53.32;99748.13;5062378;28;20036;-64
2023/01/13 06:06:54;;;;;;;24.08;2.20;;;;;;;4.18;54.25;99746.41;5069870;28;20497;-65
2023/01/13 06:09:21;;;;;;;23.08;1.38;;;;;;;4.51;53.03;99738.47;5065335;28;20136;-65
2023/01/13 06:11:47;;;;;;;14.70;2.35;;;;;;;4.11;53.73;99732.00;5067076;28;20032;-68
2023/01/13 06:14:13;;;;;;;12.25;1.23;;;;;;;4.48;53.25;99718.72;5079457;27;20075;-70
2023/01/13 06:16:38;;;;;;;20.42;1.85;;;;;;;4.60;53.49;99728.66;5095914;27;20052;-70
2023/01/13 06:19:07;;;;;;;23.35;3.63;;;;;;;4.64;52.83;99724.22;5054079;28;20051;-70
2023/01/13 06:21:36;;;;;;;15.85;2.15;;;;;;;4.41;53.35;99723.25;5063011;28;20066;-71
2023/01/13 06:24:02;;;;;;;18.25;2.92;;;;;;;4.62;53.12;99723.44;5069513;28;20142;-70
2023/01/13 06:26:32;;;;;;;15.07;1.23;;;;;;;4.80;52.29;99717.63;5074235;28;20135;-70
2023/01/13 06:28:57;;;;;;;11.07;1.25;;;;;;;4.81;52.53;99727.09;5067891;28;20052;-70
2023/01/13 06:31:25;;;;;;;18.10;2.35;;;;;;;4.49;52.98;99729.91;5065515;28;20067;-66
2023/01/13 06:33:57;;;;;;;17.20;1.58;;;;;;;4.84;52.45;99721.81;5064384;28;20126;-69
2023/01/13 06:36:28;;;;;;;22.30;2.78;;;;;;;4.51;53.49;99725.53;5063211;28;20028;-69
2023/01/13 06:38:57;;;;;;;16.23;2.92;;;;;;;4.58;53.84;99704.56;5064855;28;20064;-69
2023/01/13 06:44:10;;;;;;;17.25;2.60;;;;;;;4.08;55.70;99716.59;5064525;28;20059;-70
2023/01/13 06:46:35;;;;;;;21.45;2.92;;;;;;;4.34;55.32;99713.13;5058703;28;20019;-68
2023/01/13 06:49:01;;;;;;;22.92;2.15;;;;;;;4.12;55.56;99711.25;5076682;28;20413;-68
2023/01/13 06:51:27;;;;;;;21.65;3.22;;;;;;;3.81;56.23;99711.38;5067595;28;20036;-68
2023/01/13 06:53:52;;;;;;;25.23;2.67;;;;;;;4.10;55.51;99707.88;5061271;28;20072;-68
2023/01/13 06:56:18;;;;;;;13.80;1.70;;;;;;;4.09;55.60;99700.16;5065625;28;20039;-69
2023/01/13 06:58:44;;;;;;;25.70;3.60;;;;;;;4.00;56.14;99712.47;5062038;28;20048;-65
2023/01/13 07:01:10;;;;;;;33.75;3.42;;;;;;;4.30;54.71;99704.66;5066340;28;20040;-65
2023/01/13 07:03:35;;;;;;;13.98;2.15;;;;;;;4.64;53.92;99713.88;5061211;28;20568;-65
2023/01/13 07:06:01;;;;;;;21.65;2.72;;;;;;;4.37;54.38;99718.25;5062192;28;20560;-66
2023/01/13 07:08:26;;;;;;;11.68;1.92;;;;;;;4.29;54.92;99721.06;5061122;28;20031;-67
2023/01/13 07:10:53;;;;;;;21.65;2.60;;;;;;;4.35;54.47;99727.78;5067527;28;20028;-65
2023/01/13 07:16:06;;;;;;;14.50;3.28;;;;;;;4.36;55.26;99729.47;5063517;28;20046;-67
2023/01/13 07:18:33;;;;;;;27.40;2.67;;;;;;;3.92;55.95;99719.66;5060041;28;20066;-66
2023/01/13 07:21:01;;;;;;;22.40;3.78;;;;;;;4.16;55.72;99719.75;5064238;28;20624;-66
2023/01/13 07:23:29;;;;;;;16.20;3.22;;;;;;;4.37;55.90;99739.78;5062018;28;20040;-68
2023/01/13 07:25:56;;;;;;;13.38;1.73;;;;;;;4.50;55.94;99726.41;5063637;28;20464;-68
2023/01/13 07:28:23;;;;;;;13.13;2.08;;;;;;;4.18;56.93;99718.81;5065794;28;20055;-67
2023/01/13 07:30:48;;;;;;;14.27;1.65;;;;;;;4.32;56.56;99728.72;5066384;28;20035;-66
2023/01/13 07:33:13;;;;;;;15.63;1.58;;;;;;;4.43;56.37;99731.81;5069076;28;20040;-67
2023/01/13 07:35:39;;;;;;;16.23;2.00;;;;;;;4.29;56.51;99734.00;5060050;28;20558;-66
2023/01/13 07:38:05;;;;;;;12.98;1.67;;;;;;;4.08;56.85;99725.19;5066160;28;20048;-66
2023/01/13 07:40:30;;;;;;;17.52;2.08;;;;;;;4.07;57.35;99738.16;5060884;28;20452;-66
2023/01/13 07:45:40;;;;;;;18.05;2.05;;;;;;;3.67;58.49;99762.59;5062959;28;21151;-66
2023/01/13 07:48:05;;;;;;;9.00;1.13;;;;;;;3.50;59.01;99745.88;5064389;28;20848;-66
2023/01/13 07:50:31;;;;;;;5.82;0.98;;;;;;;4.46;56.91;99766.25;5059339;28;20135;-66
2023/01/13 07:52:57;;;;;;;12.75;1.02;;;;;;;3.86;58.39;99745.69;5076321;27;20094;-66
2023/01/13 07:55:23;;;;;;;15.77;1.58;;;;;;;4.30;57.68;99758.97;5060089;28;20416;-66
2023/01/13 07:57:48;;;;;;;21.08;1.83;;;;;;;3.33;59.48;99771.31;5062086;28;20123;-66
2023/01/13 08:00:14;;;;;;;6.50;1.05;;;;;;;4.18;57.18;99755.00;5069014;28;20036;-66
2023/01/13 08:02:40;;;;;;;10.75;1.20;;;;;;;3.94;58.22;99766.13;5058556;28;20035;-69
2023/01/13 08:05:06;;;;;;;10.45;1.00;;;;;;;3.54;59.28;99742.31;5064299;28;20039;-68
2023/01/13 08:07:32;;;;;;;16.25;1.38;;;;;;;3.46;59.89;99779.59;5066352;28;20065;-67
2023/01/13 08:09:57;;;;;;;10.48;1.17;;;;;;;3.05;61.53;99782.38;5078570;28;20019;-68
2023/01/13 08:15:08;;;;;;;18.00;1.25;;;;;;;3.91;59.62;99768.81;5061476;28;20043;-66
2023/01/13 08:17:35;;;;;;;20.45;1.63;;;;;;;3.26;61.99;99775.78;5057393;28;20032;-67
2023/01/13 08:20:03;;;;;;;9.30;1.25;;;;;;;3.36;61.03;99789.34;5063168;28;20124;-66
2023/01/13 08:22:29;;;;;;;6.90;1.13;;;;;;;3.54;61.01;99765.56;5061682;28;20314;-66
2023/01/13 08:24:55;;;;;;;10.63;1.73;;;;;;;3.65;59.99;99766.97;5043552;28;20036;-65
2023/01/13 08:27:21;;;;;;;14.70;0.98;;;;;;;3.47;60.80;99778.69;5062047;28;20040;-66
2023/01/13 08:29:46;;;;;;;12.68;1.88;;;;;;;3.40;61.12;99765.09;5064179;28;20490;-65
2023/01/13 08:32:12;;;;;;;13.52;1.25;;;;;;;3.77;59.43;99766.63;5065135;27;20027;-66
2023/01/13 08:34:37;;;;;;;6.85;0.95;;;;;;;4.10;58.68;99766.53;5037780;28;20510;-66
2023/01/13 08:37:03;;;;;;;7.65;0.50;;;;;;;4.10;58.01;99763.94;5059321;28;20081;-66
2023/01/13 08:39:28;;;;;;;11.40;1.73;;;;;;;4.39;57.63;99766.44;5058415;28;20072;-66
2023/01/13 08:41:54;;;;;;;15.63;1.30;;;;;;;4.15;57.59;99762.03;5059759;28;20525;-66
2023/01/13 08:44:19;;;;;;;7.50;0.55;;;;;;;3.97;58.79;99750.53;5061927;28;20338;-67
2023/01/13 08:46:45;;;;;;;11.75;1.05;;;;;;;3.88;58.52;99772.31;5060076;28;20437;-66
2023/01/13 08:49:10;;;;;;;9.82;1.00;;;;;;;4.22;57.86;99766.97;5058335;28;20777;-66
2023/01/13 08:51:36;;;;;;;16.67;1.60;;;;;;;4.17;57.87;99788.72;5054772;28;20035;-67
2023/01/13 08:54:02;;;;;;;8.23;1.10;;;;;;;3.68;58.77;99767.75;5055290;28;20100;-67
2023/01/13 08:56:28;;;;;;;14.52;1.42;;;;;;;4.25;57.20;99775.53;5063210;28;20683;-66
2023/01/13 08:58:57;;;;;;;7.95;1.45;;;;;;;4.44;56.42;99779.22;5056566;28;20051;-67
2023/01/13 09:01:23;;;;;;;8.73;1.20;;;;;;;3.96;57.39;99774.66;5057550;28;20043;-66
2023/01/13 09:03:48;;;;;;;26.63;2.22;;;;;;;3.84;58.06;99782.81;5056409;28;20035;-66
2023/01/13 09:06:13;;;;;;;10.38;0.43;;;;;;;4.23;57.42;99773.00;5068696;28;20438;-66
2023/01/13 09:08:39;;;;;;;12.07;0.90;;;;;;;4.15;57.43;99767.22;5054703;28;20047;-67
2023/01/13 09:13:10;;;;;;;14.00;0.80;;;;;;;4.24;57.21;99766.91;5062051;28;20044;-66
2023/01/13 09:13:50;;;;;;;11.25;1.17;;;;;;;3.66;58.77;99763.50;5058878;28;20040;-67
2023/01/13 09:16:16;;;;;;;12.65;1.40;;;;;;;3.66;58.74;99753.19;5059296;28;20425;-67
2023/01/13 09:18:41;;;;;;;16.08;1.92;;;;;;;3.92;58.38;99766.19;5063760;28;20087;-67
2023/01/13 09:21:09;;;;;;;13.85;1.48;;;;;;;3.62;59.10;99780.00;5076559;28;20085;-66
2023/01/13 09:23:35;;;;;;;11.27;1.75;;;;;;;3.34;59.92;99773.88;5059425;28;20051;-66
2023/01/13 09:26:00;;;;;;;17.70;1.67;;;;;;;4.29;57.38;99767.63;5057999;28;20044;-66
2023/01/13 09:28:26;;;;;;;6.75;1.33;;;;;;;3.85;58.46;99775.00;5058351;28;20048;-67
2023/01/13 09:30:51;;;;;;;16.13;1.67;;;;;;;3.72;58.63;99776.28;5062893;28;20066;-66
2023/01/13 09:36:01;;;;;;;19.35;1.48;;;;;;;3.92;59.08;99776.53;5061636;28;20169;-66
2023/01/13 09:38:26;;;;;;;12.63;1.10;;;;;;;4.15;58.28;99788.75;5063150;28;20135;-65
2023/01/13 09:40:53;;;;;;;16.58;2.90;;;;;;;3.55;60.24;99781.91;5069471;28;20047;-66
2023/01/13 09:46:43;;;;;;;24.73;2.65;;;;;;;3.56;59.92;99781.88;5067142;28;20046;-66
2023/01/13 09:49:35;;;;;;;21.52;2.30;;;;;;;3.40;60.58;99767.66;5063966;27;20052;-66
2023/01/13 09:52:21;;;;;;;15.32;2.00;;;;;;;3.94;59.32;99785.09;5067584;28;20101;-66
2023/01/13 09:54:59;;;;;;;15.63;2.05;;;;;;;4.48;57.95;99787.75;5078289;27;20748;-66
2023/01/13 09:57:27;;;;;;;12.52;1.30;;;;;;;3.88;59.61;99787.00;5058119;28;20037;-67
2023/01/13 09:59:52;;;;;;;9.38;1.10;;;;;;;3.99;60.29;99793.53;5068209;28;20135;-66
2023/01/13 10:02:29;;;;;;;14.80;1.20;;;;;;;4.21;59.32;99793.72;5084831;28;20071;-66
2023/01/13 10:05:33;;;;;;;20.58;1.92;;;;;;;3.56;61.07;99802.53;5062772;28;20059;-66
2023/01/13 10:08:15;;;;;;;16.25;1.27;;;;;;;3.74;60.71;99808.09;5042744;28;20044;-66
2023/01/13 10:10:45;;;;;;;12.25;1.90;;;;;;;3.63;61.57;99800.63;5070143;28;20047;-67
2023/01/13 10:13:32;;;;;;;9.73;1.38;;;;;;;3.49;61.83;99798.44;5062822;28;20051;-66
2023/01/13 10:16:41;;;;;;;14.30;1.20;;;;;;;3.71;60.71;99813.31;5066861;28;20507;-66
2023/01/13 10:19:28;;;;;;;16.70;1.00;;;;;;;3.15;62.00;99817.38;5066798;28;20208;-66
2023/01/13 10:22:16;;;;;;;10.77;0.98;;;;;;;3.21;62.46;99820.69;5053334;28;20563;-65
2023/01/13 10:25:00;;;;;;;6.80;0.80;;;;;;;3.15;62.64;99814.78;5064133;28;20123;-66
2023/01/13 10:27:37;;;;;;;9.88;1.10;;;;;;;3.22;62.59;99820.63;5064355;28;20039;-66
2023/01/13 10:30:30;;;;;;;10.45;0.65;;;;;;;3.28;63.37;99822.22;5063246;28;20056;-66
2023/01/13 10:32:58;;;;;;;14.75;1.95;;;;;;;3.91;60.84;99823.09;5063702;27;20110;-65
2023/01/13 10:35:50;;;;;;;9.65;1.58;;;;;;;3.68;61.62;99823.75;5059379;28;20042;-65
2023/01/13 10:38:20;;;;;;;14.88;1.60;;;;;;;3.51;61.68;99837.97;5064472;28;20047;-65
2023/01/13 10:40:51;;;;;;;10.52;1.17;;;;;;;3.76;61.49;99821.78;5070183;28;20036;-65
2023/01/13 10:43:17;;;;;;;9.95;0.88;;;;;;;3.24;62.28;99833.53;5064666;28;20035;-66
2023/01/13 10:45:54;;;;;;;6.45;0.60;;;;;;;2.98;62.41;99832.47;5063403;28;20038;-65
2023/01/13 10:48:20;;;;;;;6.30;1.05;;;;;;;3.22;61.80;99825.81;5064158;28;20128;-65
2023/01/13 10:50:47;;;;;;;9.20;1.23;;;;;;;3.54;61.97;99832.75;5064011;28;20392;-65
2023/01/13 10:53:21;;;;;;;9.98;1.10;;;;;;;3.37;61.76;99819.44;5081783;27;20044;-66
2023/01/13 10:56:01;;;;;;;8.88;1.35;;;;;;;3.54;61.26;99842.22;5062935;28;20051;-65
2023/01/13 10:58:27;;;;;;;9.10;1.35;;;;;;;3.53;62.11;99831.03;5082898;27;20079;-66
2023/01/13 11:01:04;;;;;;;10.65;1.58;;;;;;;3.47;61.55;99820.88;5062866;28;20142;-65
2023/01/13 11:03:39;;;;;;;11.95;1.17;;;;;;;3.87;61.27;99829.22;5059033;28;20097;-65
2023/01/13 11:06:05;;;;;;;11.52;1.10;;;;;;;3.80;61.42;99828.56;5064070;28;20032;-66
2023/01/13 11:08:42;;;;;;;6.63;1.27;;;;;;;3.44;62.20;99833.03;5062950;28;20848;-66
2023/01/13 11:11:41;;;;;;;14.00;1.17;;;;;;;3.69;61.35;99835.78;5081568;27;20032;-66
2023/01/13 11:14:35;;;;;;;8.93;1.00;;;;;;;4.22;59.96;99846.31;5057731;28;20059;-66
2023/01/13 11:17:26;;;;;;;14.07;1.88;;;;;;;3.88;60.76;99844.72;5071412;28;20433;-66
2023/01/13 11:20:10;;;;;;;9.88;0.90;;;;;;;3.52;61.61;99851.75;5062004;28;20263;-66
2023/01/13 11:22:44;;;;;;;15.73;1.52;;;;;;;3.47;61.43;99838.09;5061061;28;20048;-67
2023/01/13 11:25:18;;;;;;;7.32;0.30;;;;;;;3.53;61.76;99856.88;5065942;28;20111;-66
2023/01/13 11:27:54;;;;;;;6.65;1.92;;;;;;;4.04;60.68;99857.19;5062507;28;20040;-66
2023/01/13 11:30:58;;;;;;;8.13;0.52;;;;;;;3.96;60.41;99845.34;5063354;28;20028;-66
2023/01/13 11:33:40;;;;;;;9.52;0.65;;;;;;;4.28;59.78;99840.94;5036974;28;20183;-67
2023/01/13 11:36:37;;;;;;;6.82;0.60;;;;;;;4.14;59.71;99832.75;5063727;28;20044;-66
2023/01/13 11:39:33;;;;;;;8.55;1.52;;;;;;;3.65;60.83;99821.25;5062405;28;20488;-66
2023/01/13 11:42:20;;;;;;;6.25;1.25;;;;;;;3.99;60.38;99834.06;5063587;28;20836;-66
2023/01/13 11:45:18;;;;;;;7.43;1.17;;;;;;;3.68;60.65;99844.44;5057422;28;20047;-66
2023/01/13 11:47:48;;;;;;;11.20;1.42;;;;;;;3.34;61.59;99840.19;5060626;28;20127;-66
2023/01/13 11:50:33;;;;;;;10.93;1.88;;;;;;;3.84;60.56;99830.19;5075378;27;20042;-66
2023/01/13 11:53:28;;;;;;;13.77;2.00;;;;;;;4.30;59.22;99865.03;5070461;27;20074;-66
2023/01/13 11:56:09;;;;;;;12.30;1.10;;;;;;;4.37;59.09;99848.44;5070414;28;20130;-67
2023/01/13 11:58:54;;;;;;;16.02;2.28;;;;;;;3.96;60.79;99858.28;5059561;28;20289;-66
2023/01/13 12:01:57;;;;;;;14.02;1.10;;;;;;;4.32;59.67;99834.78;5045902;28;20183;-67
2023/01/13 12:04:56;;;;;;;10.65;0.60;;;;;;;3.57;61.80;99834.38;5058838;28;20170;-66
2023/01/13 12:08:00;;;;;;;12.00;1.40;;;;;;;4.05;60.25;99843.38;5060612;28;20118;-67
2023/01/13 12:10:36;;;;;;;18.50;1.45;;;;;;;4.12;60.47;99852.63;5053110;28;20047;-66
2023/01/13 12:13:06;;;;;;;11.00;1.33;;;;;;;4.39;59.61;99863.91;5060045;28;20047;-67
2023/01/13 12:15:47;;;;;;;10.50;0.65;;;;;;;4.67;58.97;99858.72;5057623;28;20461;-66
2023/01/13 12:18:24;;;;;;;13.05;1.77;;;;;;;4.62;58.88;99855.44;5059020;28;20427;-66
2023/01/13 12:21:20;;;;;;;12.60;1.00;;;;;;;4.34;59.20;99850.25;5058323;28;20035;-67
2023/01/13 12:23:58;;;;;;;8.38;1.08;;;;;;;4.34;59.82;99851.13;5047639;28;20097;-66
2023/01/13 12:26:24;;;;;;;13.50;0.98;;;;;;;4.12;60.58;99856.09;5059765;28;20771;-68
2023/01/13 12:28:56;;;;;;;13.80;0.82;;;;;;;3.86;61.48;99859.41;5060264;28;20056;-66
2023/01/13 12:31:23;;;;;;;14.13;1.55;;;;;;;4.78;59.29;99850.59;5053773;28;20835;-67
2023/01/13 12:34:11;;;;;;;14.55;1.20;;;;;;;4.28;60.02;99850.47;5055777;28;20345;-66
2023/01/13 12:36:36;;;;;;;14.82;1.88;;;;;;;4.47;59.74;99866.25;5060859;28;20317;-66
2023/01/13 12:39:28;;;;;;;21.50;1.42;;;;;;;4.49;58.98;99864.47;5061702;28;20179;-67
2023/01/13 12:45:27;;;;;;;13.82;1.23;;;;;;;4.32;59.22;99860.66;5056450;28;20056;-66